Time;durP1;ratioP1;P1;durP2;ratioP2;P2;SDS_P1;SDS_P2;PMS_P1;PMS_P2;Temp;Humidity;BMP_temperature;BMP_pressure;BME280_temperature;BME280_humidity;BME280_pressure;Samples;Min_cycle;Max_cycle;Signal;HPM_P1;HPM_P2
2023/09/11 00:00:41;;;;;;;3.47;3.17;;;25.20;72.40;;;;;;5065394;28;20486;-67
2023/09/11 00:03:07;;;;;;;4.97;2.95;;;25.10;72.50;;;;;;5054718;28;20396;-67
2023/09/11 00:05:32;;;;;;;3.92;2.88;;;25.10;72.50;;;;;;5065359;28;20056;-67
2023/09/11 00:07:58;;;;;;;4.95;3.30;;;25.10;72.60;;;;;;5064819;28;20057;-67
2023/09/11 00:10:24;;;;;;;3.42;2.47;;;25.00;72.60;;;;;;5069305;28;20032;-67
2023/09/11 00:12:50;;;;;;;4.00;2.88;;;25.00;72.80;;;;;;5062836;28;20111;-67
2023/09/11 00:15:15;;;;;;;3.55;2.53;;;25.00;72.80;;;;;;5065481;28;20055;-67
2023/09/11 00:17:41;;;;;;;3.95;2.40;;;25.00;72.80;;;;;;5065178;28;20021;-67
2023/09/11 00:20:08;;;;;;;4.38;2.40;;;25.00;72.80;;;;;;5059843;28;20025;-67
2023/09/11 00:22:33;;;;;;;3.05;2.75;;;24.90;72.80;;;;;;5060634;28;20029;-67
2023/09/11 00:24:59;;;;;;;3.42;2.47;;;24.90;72.90;;;;;;5056200;28;20028;-67
2023/09/11 00:27:25;;;;;;;3.80;2.95;;;24.90;73.00;;;;;;5068744;28;20526;-67
2023/09/11 00:29:51;;;;;;;4.75;2.67;;;24.80;73.00;;;;;;5065934;28;20090;-67
2023/09/11 00:32:17;;;;;;;3.58;2.85;;;24.80;73.10;;;;;;5067240;28;20467;-68
2023/09/11 00:34:43;;;;;;;4.78;2.72;;;24.80;73.10;;;;;;5067303;28;20020;-67
2023/09/11 00:37:08;;;;;;;4.90;3.42;;;24.80;73.30;;;;;;5067889;28;20150;-67
2023/09/11 00:39:34;;;;;;;3.53;2.97;;;24.80;73.30;;;;;;5066925;28;20031;-67
2023/09/11 00:42:00;;;;;;;2.85;2.45;;;24.70;73.20;;;;;;5062374;28;20047;-67
2023/09/11 00:44:25;;;;;;;5.93;2.40;;;24.70;73.20;;;;;;5067207;28;20024;-67
2023/09/11 00:46:51;;;;;;;3.78;2.92;;;24.70;73.30;;;;;;5066480;28;20089;-67
2023/09/11 00:49:19;;;;;;;3.63;2.63;;;24.70;73.30;;;;;;5069199;28;20032;-67
2023/09/11 00:51:45;;;;;;;3.58;2.95;;;24.70;73.50;;;;;;5067218;28;20031;-67
2023/09/11 00:54:12;;;;;;;3.63;2.78;;;24.60;73.40;;;;;;5065943;28;20423;-67
2023/09/11 00:56:38;;;;;;;5.47;3.13;;;24.60;73.40;;;;;;5068267;28;20040;-67
2023/09/11 00:59:03;;;;;;;5.18;2.90;;;24.60;73.50;;;;;;5061238;28;20399;-66
2023/09/11 01:01:29;;;;;;;3.58;2.75;;;24.60;73.50;;;;;;5064768;28;20464;-66
2023/09/11 01:03:55;;;;;;;3.00;2.10;;;24.60;73.60;;;;;;5066765;28;20434;-67
2023/09/11 01:06:21;;;;;;;3.05;2.30;;;24.50;73.50;;;;;;5066549;28;20069;-66
2023/09/11 01:08:47;;;;;;;3.42;2.40;;;24.50;73.60;;;;;;5066111;28;20058;-66
2023/09/11 01:11:13;;;;;;;3.33;2.58;;;24.50;73.60;;;;;;5066186;28;20027;-67
2023/09/11 01:13:38;;;;;;;3.88;2.75;;;24.50;73.60;;;;;;5066366;28;20112;-67
2023/09/11 01:16:08;;;;;;;2.58;2.38;;;24.50;73.60;;;;;;5067087;28;20427;-67
2023/09/11 01:18:43;;;;;;;3.75;2.92;;;24.50;73.70;;;;;;5062463;28;20039;-67
2023/09/11 01:21:27;;;;;;;5.20;3.08;;;24.50;73.80;;;;;;5050580;28;20036;-66
2023/09/11 01:24:23;;;;;;;3.10;2.17;;;24.40;73.80;;;;;;5067260;28;20035;-66
2023/09/11 01:27:22;;;;;;;2.78;2.40;;;24.40;73.90;;;;;;5066974;28;20024;-67
2023/09/11 01:29:51;;;;;;;4.15;3.10;;;24.40;73.90;;;;;;5047109;28;20025;-66
2023/09/11 01:32:19;;;;;;;5.25;2.97;;;24.40;74.10;;;;;;5067484;28;20057;-67
2023/09/11 01:34:44;;;;;;;2.40;2.13;;;24.40;74.10;;;;;;5066323;28;20056;-66
2023/09/11 01:37:10;;;;;;;3.08;2.42;;;24.40;74.10;;;;;;5063047;28;20060;-66
2023/09/11 01:39:36;;;;;;;4.18;2.97;;;24.40;74.00;;;;;;5064423;28;20028;-67
2023/09/11 01:42:09;;;;;;;3.05;2.53;;;24.40;74.00;;;;;;5057750;28;20048;-66
2023/09/11 01:44:46;;;;;;;2.70;2.20;;;24.40;74.10;;;;;;5063977;28;20021;-66
2023/09/11 01:47:14;;;;;;;4.22;2.65;;;24.30;74.10;;;;;;5060841;28;20028;-66
2023/09/11 01:49:42;;;;;;;4.00;3.15;;;24.30;74.30;;;;;;5059755;28;20030;-66
2023/09/11 01:52:13;;;;;;;4.13;3.28;;;24.20;74.20;;;;;;5062216;28;20039;-66
2023/09/11 01:54:39;;;;;;;6.85;2.97;;;24.20;74.40;;;;;;5043329;28;20025;-66
2023/09/11 01:57:06;;;;;;;4.63;3.03;;;24.20;74.60;;;;;;5062584;28;20429;-67
2023/09/11 01:59:32;;;;;;;3.70;2.80;;;24.20;74.70;;;;;;5065586;28;20063;-67
2023/09/11 02:01:57;;;;;;;7.28;3.53;;;24.20;74.60;;;;;;5045628;28;20028;-67
2023/09/11 02:04:23;;;;;;;3.70;2.72;;;24.10;74.60;;;;;;5059064;28;20060;-67
2023/09/11 02:06:49;;;;;;;4.72;3.05;;;24.10;74.50;;;;;;5062814;28;20024;-66
2023/09/11 02:09:15;;;;;;;3.85;2.40;;;24.10;74.70;;;;;;5064600;28;20048;-67
2023/09/11 02:11:40;;;;;;;3.28;2.65;;;24.10;74.60;;;;;;5046543;28;20029;-67
2023/09/11 02:14:06;;;;;;;4.70;3.35;;;24.10;74.80;;;;;;5042149;28;20025;-67
2023/09/11 02:16:32;;;;;;;4.90;3.10;;;24.00;74.90;;;;;;5036163;28;20086;-67
2023/09/11 02:18:57;;;;;;;6.50;3.47;;;24.00;74.90;;;;;;5046323;28;20052;-66
2023/09/11 02:21:23;;;;;;;4.60;2.55;;;24.00;75.00;;;;;;5044490;28;20128;-67
2023/09/11 02:23:49;;;;;;;3.38;3.05;;;24.00;75.00;;;;;;5032617;28;20622;-67
2023/09/11 02:26:15;;;;;;;4.30;3.30;;;24.00;75.00;;;;;;5043621;28;20025;-66
2023/09/11 02:28:40;;;;;;;3.58;3.20;;;24.00;75.10;;;;;;5049866;28;20068;-67
2023/09/11 02:31:07;;;;;;;3.92;2.90;;;24.00;75.20;;;;;;5048826;28;20052;-66
2023/09/11 02:33:32;;;;;;;3.30;3.00;;;24.00;75.20;;;;;;5046421;28;20179;-67
2023/09/11 02:35:59;;;;;;;5.60;2.75;;;23.90;75.10;;;;;;5045704;28;20100;-66
2023/09/11 02:38:25;;;;;;;4.13;3.15;;;23.90;75.10;;;;;;5045295;28;20044;-67
2023/09/11 02:40:51;;;;;;;3.38;2.63;;;23.90;75.10;;;;;;5043082;28;20037;-66
2023/09/11 02:43:16;;;;;;;4.88;3.13;;;23.90;75.10;;;;;;5038875;28;20487;-66
2023/09/11 02:45:43;;;;;;;4.50;2.55;;;23.90;75.10;;;;;;5042538;28;20030;-66
2023/09/11 02:48:09;;;;;;;4.60;3.38;;;23.90;75.10;;;;;;5041931;28;20033;-67
2023/09/11 02:50:35;;;;;;;3.50;2.40;;;23.90;75.10;;;;;;5042265;28;20034;-67
2023/09/11 02:53:01;;;;;;;5.63;3.15;;;23.90;75.20;;;;;;5043808;28;20037;-66
2023/09/11 02:55:26;;;;;;;3.63;2.60;;;23.90;75.20;;;;;;5046549;28;20114;-66
2023/09/11 02:57:52;;;;;;;4.00;3.20;;;23.90;75.20;;;;;;5045559;28;20118;-67
2023/09/11 03:00:18;;;;;;;5.82;3.35;;;23.90;75.20;;;;;;5047915;28;20033;-66
2023/09/11 03:02:45;;;;;;;5.60;3.10;;;23.80;75.20;;;;;;5048953;28;20037;-67
2023/09/11 03:05:10;;;;;;;2.85;2.53;;;23.80;75.30;;;;;;5048796;28;20052;-66
2023/09/11 03:07:36;;;;;;;7.13;3.20;;;23.80;75.30;;;;;;5045124;28;20080;-66
2023/09/11 03:10:03;;;;;;;3.55;2.47;;;23.70;75.30;;;;;;5063738;28;20029;-66
2023/09/11 03:12:29;;;;;;;3.60;2.67;;;23.70;75.30;;;;;;5049457;28;20115;-66
2023/09/11 03:14:58;;;;;;;3.65;2.75;;;23.70;75.40;;;;;;5049329;28;20101;-66
2023/09/11 03:17:24;;;;;;;6.70;3.20;;;23.70;75.40;;;;;;5069570;28;20387;-66
2023/09/11 03:19:50;;;;;;;5.70;3.30;;;23.70;75.50;;;;;;5062457;28;20035;-67
2023/09/11 03:22:16;;;;;;;5.50;3.33;;;23.60;75.60;;;;;;5067972;28;20040;-67
2023/09/11 03:24:41;;;;;;;7.00;3.30;;;23.60;75.60;;;;;;5048749;28;20407;-67
2023/09/11 03:27:07;;;;;;;7.80;4.38;;;23.50;75.80;;;;;;5046671;28;20035;-66
2023/09/11 03:29:33;;;;;;;4.53;3.28;;;23.50;76.00;;;;;;5065526;28;20422;-67
2023/09/11 03:31:58;;;;;;;5.30;3.10;;;23.50;76.10;;;;;;5067641;28;20024;-67
2023/09/11 03:34:24;;;;;;;4.88;3.30;;;23.40;76.10;;;;;;5066533;28;20387;-66
2023/09/11 03:36:50;;;;;;;4.18;3.08;;;23.40;76.20;;;;;;5069936;28;20033;-67
2023/09/11 03:39:15;;;;;;;4.20;2.88;;;23.40;76.10;;;;;;5068576;28;20094;-67
2023/09/11 03:41:41;;;;;;;4.95;3.00;;;23.40;76.00;;;;;;5070476;28;20033;-67
2023/09/11 03:44:06;;;;;;;12.77;3.17;;;23.40;75.90;;;;;;5061942;28;20430;-67
2023/09/11 03:46:32;;;;;;;4.10;3.25;;;23.40;75.80;;;;;;5061308;28;20033;-67
2023/09/11 03:48:58;;;;;;;3.75;2.67;;;23.40;75.80;;;;;;5062918;28;20037;-66
2023/09/11 03:51:24;;;;;;;3.58;2.75;;;23.40;75.80;;;;;;5040345;28;20502;-67
2023/09/11 03:53:50;;;;;;;3.15;2.65;;;23.40;75.70;;;;;;5065203;28;20382;-67
2023/09/11 03:56:15;;;;;;;4.68;3.22;;;23.40;75.70;;;;;;5065798;28;20120;-66
2023/09/11 03:58:44;;;;;;;3.55;2.65;;;23.40;75.80;;;;;;5066764;28;20056;-66
2023/09/11 04:01:09;;;;;;;3.47;2.70;;;23.30;75.70;;;;;;5065767;28;20420;-66
2023/09/11 04:03:35;;;;;;;4.63;2.90;;;23.30;75.80;;;;;;5063214;28;20048;-66
2023/09/11 04:06:01;;;;;;;5.10;2.83;;;23.30;75.80;;;;;;5067236;28;20456;-66
2023/09/11 04:08:26;;;;;;;4.18;3.33;;;23.30;75.90;;;;;;5059818;28;20056;-66
2023/09/11 04:10:52;;;;;;;6.30;2.72;;;23.20;75.80;;;;;;5062499;28;20021;-66
2023/09/11 04:13:18;;;;;;;4.15;3.10;;;23.20;75.90;;;;;;5062045;28;20035;-66
2023/09/11 04:15:44;;;;;;;3.55;2.67;;;23.20;75.90;;;;;;5047698;28;20046;-66
2023/09/11 04:18:09;;;;;;;4.05;2.70;;;23.20;75.90;;;;;;5060997;28;20025;-66
2023/09/11 04:20:35;;;;;;;5.00;2.90;;;23.10;76.50;;;;;;5065691;28;20036;-66
2023/09/11 04:23:01;;;;;;;3.58;3.10;;;23.10;75.90;;;;;;5061174;28;20112;-66
2023/09/11 04:25:28;;;;;;;4.93;3.35;;;23.10;76.00;;;;;;5063691;28;20052;-66
2023/09/11 04:27:54;;;;;;;3.97;3.25;;;23.10;76.00;;;;;;5057276;28;20438;-66
2023/09/11 04:30:19;;;;;;;5.18;3.53;;;23.10;76.10;;;;;;5058248;28;20044;-66
2023/09/11 04:32:45;;;;;;;5.65;3.33;;;23.00;76.00;;;;;;5065596;28;20112;-67
2023/09/11 04:35:11;;;;;;;11.90;3.10;;;23.00;76.00;;;;;;5048202;28;20024;-66
2023/09/11 04:37:37;;;;;;;3.83;2.95;;;23.00;76.10;;;;;;5063212;28;20021;-66
2023/09/11 04:40:06;;;;;;;4.47;2.90;;;23.00;76.10;;;;;;5066678;28;20024;-66
2023/09/11 04:42:33;;;;;;;6.68;3.25;;;23.00;76.30;;;;;;5066140;28;20446;-66
2023/09/11 04:44:59;;;;;;;4.10;3.35;;;23.00;76.40;;;;;;5065550;28;20131;-66
2023/09/11 04:47:26;;;;;;;4.90;3.15;;;22.90;76.40;;;;;;5050544;28;20052;-66
2023/09/11 04:49:51;;;;;;;5.90;3.92;;;22.90;76.50;;;;;;5062844;28;20369;-66
2023/09/11 04:52:17;;;;;;;3.63;2.83;;;22.90;76.60;;;;;;5066306;28;20082;-66
2023/09/11 04:54:43;;;;;;;6.15;2.90;;;22.90;76.60;;;;;;5065872;28;20033;-66
2023/09/11 04:57:08;;;;;;;8.20;3.58;;;22.90;76.60;;;;;;5065211;28;20029;-66
2023/09/11 04:59:34;;;;;;;4.10;3.25;;;22.90;76.50;;;;;;5049007;28;20115;-66
2023/09/11 05:02:00;;;;;;;7.07;3.53;;;22.90;76.50;;;;;;5064128;28;20509;-67
2023/09/11 05:04:25;;;;;;;7.78;4.50;;;22.80;76.50;;;;;;5051635;28;21051;-67
2023/09/11 05:06:51;;;;;;;5.57;3.83;;;22.80;76.60;;;;;;5063103;28;20041;-67
2023/09/11 05:09:16;;;;;;;5.53;4.03;;;22.80;76.70;;;;;;5046391;28;20040;-67
2023/09/11 05:11:42;;;;;;;8.18;4.18;;;22.70;76.80;;;;;;5066177;28;20078;-66
2023/09/11 05:14:08;;;;;;;4.78;3.13;;;22.70;76.90;;;;;;5068285;28;20439;-66
2023/09/11 05:16:33;;;;;;;5.50;3.08;;;22.70;77.00;;;;;;5040776;28;20042;-67
2023/09/11 05:18:59;;;;;;;4.47;3.65;;;22.70;77.00;;;;;;5047272;28;20029;-67
2023/09/11 05:21:25;;;;;;;6.70;3.28;;;22.70;77.00;;;;;;5044537;28;20036;-67
2023/09/11 05:23:51;;;;;;;7.20;3.45;;;22.70;77.10;;;;;;5044037;28;20033;-67
2023/09/11 05:26:17;;;;;;;5.03;3.30;;;22.70;77.10;;;;;;5043446;28;20043;-67
2023/09/11 05:28:42;;;;;;;5.65;3.50;;;22.70;77.10;;;;;;5045482;28;20048;-67
2023/09/11 05:31:08;;;;;;;5.00;3.70;;;22.80;77.10;;;;;;5044084;28;20025;-67
2023/09/11 05:33:34;;;;;;;5.90;3.33;;;22.80;77.10;;;;;;5047235;28;20025;-66
2023/09/11 05:36:01;;;;;;;5.30;3.47;;;22.80;77.20;;;;;;5042219;28;20132;-66
2023/09/11 05:38:27;;;;;;;4.90;3.67;;;22.80;77.20;;;;;;5046037;28;20075;-67
2023/09/11 05:40:53;;;;;;;8.68;3.88;;;22.90;77.30;;;;;;5044741;28;20075;-67
2023/09/11 05:43:18;;;;;;;4.60;3.35;;;22.90;77.40;;;;;;5041468;28;20036;-67
2023/09/11 05:45:44;;;;;;;6.13;3.95;;;22.90;77.40;;;;;;5047482;28;20029;-66
2023/09/11 05:48:11;;;;;;;5.80;3.85;;;22.90;77.40;;;;;;5062966;28;20036;-66
2023/09/11 05:50:38;;;;;;;6.22;3.08;;;22.90;77.50;;;;;;5042519;28;20547;-66
2023/09/11 05:53:06;;;;;;;5.10;3.33;;;22.90;77.50;;;;;;5047260;28;20053;-66
2023/09/11 05:55:33;;;;;;;4.88;3.40;;;23.00;77.50;;;;;;5043113;28;20025;-67
2023/09/11 05:57:59;;;;;;;6.55;3.75;;;23.00;77.50;;;;;;5036446;28;20037;-66
2023/09/11 06:00:26;;;;;;;3.33;2.88;;;23.10;77.60;;;;;;5043692;28;20048;-66
2023/09/11 06:02:53;;;;;;;3.75;2.90;;;23.10;77.70;;;;;;5046395;28;20029;-66
2023/09/11 06:05:19;;;;;;;5.90;3.08;;;23.10;77.60;;;;;;5044038;28;20037;-67
2023/09/11 06:07:45;;;;;;;5.40;3.08;;;23.20;77.60;;;;;;5044682;28;20487;-67
2023/09/11 06:10:12;;;;;;;7.53;2.70;;;23.30;77.50;;;;;;5045015;28;20523;-67
2023/09/11 06:12:38;;;;;;;6.53;3.70;;;23.30;77.50;;;;;;5041031;28;20025;-68
2023/09/11 06:15:05;;;;;;;4.95;4.32;;;23.30;77.50;;;;;;5066448;28;20060;-67
2023/09/11 06:17:34;;;;;;;8.05;3.15;;;23.40;77.60;;;;;;5065613;28;20017;-67
2023/09/11 06:20:00;;;;;;;7.13;3.08;;;23.50;77.60;;;;;;5049929;28;20029;-67
2023/09/11 06:22:26;;;;;;;6.18;4.53;;;23.50;77.60;;;;;;5068282;28;20044;-68
2023/09/11 06:24:52;;;;;;;5.07;3.67;;;23.50;77.70;;;;;;5059753;28;20033;-67
2023/09/11 06:27:18;;;;;;;5.88;4.00;;;23.50;77.80;;;;;;5066679;28;20056;-67
2023/09/11 06:29:44;;;;;;;7.03;3.88;;;23.60;78.00;;;;;;5065308;28;20028;-66
2023/09/11 06:32:12;;;;;;;5.60;3.88;;;23.60;78.00;;;;;;5065800;28;20024;-67
2023/09/11 06:34:38;;;;;;;4.88;3.03;;;23.60;78.10;;;;;;5068506;28;20456;-67
2023/09/11 06:37:06;;;;;;;5.20;3.45;;;23.70;78.00;;;;;;5064018;28;20035;-69
2023/09/11 06:39:31;;;;;;;12.38;4.93;;;23.70;78.00;;;;;;5067305;28;20029;-67
2023/09/11 06:42:06;;;;;;;3.95;3.35;;;23.80;77.90;;;;;;5065523;28;20025;-67
2023/09/11 06:44:32;;;;;;;5.35;2.92;;;23.90;77.70;;;;;;5067162;28;20048;-67
2023/09/11 06:46:58;;;;;;;10.07;3.95;;;24.00;77.50;;;;;;5068419;28;20025;-68
2023/09/11 06:49:24;;;;;;;5.10;3.05;;;24.10;77.40;;;;;;5066878;28;20120;-67
2023/09/11 06:51:49;;;;;;;5.65;3.72;;;24.20;77.30;;;;;;5040998;28;20050;-66
2023/09/11 06:54:15;;;;;;;5.70;3.90;;;24.20;77.10;;;;;;5067501;28;20033;-67
2023/09/11 06:56:41;;;;;;;7.43;4.05;;;24.30;77.00;;;;;;5070196;28;20399;-66
2023/09/11 06:59:07;;;;;;;5.13;3.33;;;24.40;76.80;;;;;;5063576;28;20025;-67
2023/09/11 07:01:38;;;;;;;6.30;3.65;;;24.40;76.80;;;;;;5069605;28;20094;-65
2023/09/11 07:04:06;;;;;;;4.43;3.50;;;24.50;76.70;;;;;;5064444;28;20035;-67
2023/09/11 07:06:31;;;;;;;5.20;4.03;;;24.50;76.50;;;;;;5054015;28;20028;-66
2023/09/11 07:08:57;;;;;;;5.68;3.70;;;24.60;76.40;;;;;;5066552;28;20074;-67
2023/09/11 07:11:23;;;;;;;4.07;2.95;;;24.60;76.40;;;;;;5062077;28;20367;-67
2023/09/11 07:13:54;;;;;;;4.88;3.58;;;24.60;76.30;;;;;;5065323;28;20090;-67
2023/09/11 07:16:20;;;;;;;5.10;3.05;;;24.70;76.30;;;;;;5062816;28;20119;-66
2023/09/11 07:18:46;;;;;;;6.68;3.40;;;24.70;76.10;;;;;;5066074;28;20057;-65
2023/09/11 07:21:11;;;;;;;9.55;3.70;;;24.80;75.90;;;;;;5048806;28;20090;-66
2023/09/11 07:23:37;;;;;;;7.43;3.80;;;24.80;75.20;;;;;;5057175;28;20040;-66
2023/09/11 07:26:02;;;;;;;5.13;3.28;;;24.90;75.00;;;;;;5068372;28;20044;-66
2023/09/11 07:28:29;;;;;;;5.82;3.67;;;24.90;74.80;;;;;;5049576;28;20128;-66
2023/09/11 07:30:55;;;;;;;5.45;3.45;;;25.00;74.60;;;;;;5038914;28;20484;-66
2023/09/11 07:33:21;;;;;;;6.45;2.92;;;25.10;74.40;;;;;;5062868;28;20024;-66
2023/09/11 07:35:46;;;;;;;9.63;3.92;;;25.10;74.00;;;;;;5046522;28;20205;-67
2023/09/11 07:38:12;;;;;;;6.93;3.90;;;25.20;73.40;;;;;;5067354;28;20471;-66
2023/09/11 07:40:38;;;;;;;5.68;3.03;;;25.20;72.80;;;;;;5065955;28;20636;-67
2023/09/11 07:43:04;;;;;;;5.35;3.00;;;25.20;72.90;;;;;;5066382;28;20028;-67
2023/09/11 07:45:30;;;;;;;3.53;2.55;;;25.30;72.80;;;;;;5065854;28;20466;-67
2023/09/11 07:47:56;;;;;;;4.40;3.05;;;25.30;72.60;;;;;;5046319;28;20040;-67
2023/09/11 07:50:25;;;;;;;4.97;3.00;;;25.40;72.40;;;;;;5055033;28;20036;-67
2023/09/11 07:52:51;;;;;;;3.00;2.28;;;25.50;72.30;;;;;;5067272;28;20070;-67
2023/09/11 07:55:17;;;;;;;3.13;2.63;;;25.60;72.20;;;;;;5066517;28;20021;-68
2023/09/11 07:57:43;;;;;;;9.52;3.13;;;25.60;71.90;;;;;;5060936;28;20098;-69
2023/09/11 08:00:09;;;;;;;3.05;2.22;;;25.70;71.10;;;;;;5064274;28;20033;-68
2023/09/11 08:02:36;;;;;;;4.78;2.63;;;25.80;70.70;;;;;;5067611;28;20475;-68
2023/09/11 08:05:02;;;;;;;4.13;2.80;;;25.80;69.20;;;;;;5031584;28;20024;-68
2023/09/11 08:07:28;;;;;;;5.82;2.50;;;25.90;69.40;;;;;;5065039;28;20427;-68
2023/09/11 08:09:54;;;;;;;2.72;2.40;;;25.90;69.10;;;;;;5066000;28;20437;-68
2023/09/11 08:12:20;;;;;;;3.15;2.42;;;26.00;69.20;;;;;;5061858;28;20141;-68
2023/09/11 08:14:46;;;;;;;7.05;3.20;;;26.00;68.50;;;;;;5040500;28;20079;-68
2023/09/11 08:17:12;;;;;;;6.72;3.25;;;26.00;68.60;;;;;;5045131;28;20048;-67
2023/09/11 08:19:38;;;;;;;4.35;3.15;;;26.00;68.30;;;;;;5062988;28;20028;-68
2023/09/11 08:22:04;;;;;;;4.93;3.20;;;26.00;67.60;;;;;;5063536;28;20016;-71
2023/09/11 08:24:30;;;;;;;4.50;2.67;;;26.00;67.60;;;;;;5062292;28;20475;-72
2023/09/11 08:26:56;;;;;;;5.20;2.60;;;26.10;67.70;;;;;;5059368;28;20546;-71
2023/09/11 08:29:21;;;;;;;6.28;3.17;;;26.20;67.40;;;;;;5056928;28;20098;-71
2023/09/11 08:31:48;;;;;;;7.63;3.08;;;26.30;67.40;;;;;;5063455;28;20037;-71
2023/09/11 08:34:14;;;;;;;6.93;2.65;;;26.40;67.30;;;;;;5062296;28;20017;-70
2023/09/11 08:36:39;;;;;;;8.48;4.75;;;26.40;67.30;;;;;;5063937;28;20036;-71
2023/09/11 08:39:05;;;;;;;4.72;2.45;;;26.60;66.80;;;;;;5066533;28;20422;-72
2023/09/11 08:41:31;;;;;;;5.55;3.03;;;26.60;66.80;;;;;;5063135;28;20036;-71
2023/09/11 08:43:57;;;;;;;3.85;2.63;;;26.70;66.20;;;;;;5047281;28;20485;-67
2023/09/11 08:46:24;;;;;;;3.35;2.55;;;26.70;66.40;;;;;;5048876;28;20377;-67
2023/09/11 08:48:54;;;;;;;3.88;3.28;;;26.80;66.50;;;;;;5062161;28;20040;-71
2023/09/11 08:51:48;;;;;;;2.72;2.08;;;26.90;66.50;;;;;;5059821;28;20167;-72
2023/09/11 08:54:16;;;;;;;4.85;3.42;;;27.10;66.60;;;;;;5057497;28;20037;-71
2023/09/11 08:56:43;;;;;;;6.75;3.58;;;27.20;65.70;;;;;;5064134;28;20430;-71
2023/09/11 08:59:11;;;;;;;5.55;3.03;;;27.20;65.60;;;;;;5050553;28;20106;-71
2023/09/11 09:01:39;;;;;;;3.92;2.50;;;27.20;65.90;;;;;;5065271;28;20063;-67
2023/09/11 09:04:07;;;;;;;3.65;2.40;;;27.40;66.00;;;;;;5064618;28;20028;-67
2023/09/11 09:06:34;;;;;;;7.38;4.20;;;27.40;65.90;;;;;;5056594;28;20522;-67
2023/09/11 09:09:00;;;;;;;5.10;3.80;;;27.50;65.50;;;;;;5055294;28;20028;-67
2023/09/11 09:11:26;;;;;;;6.35;4.07;;;27.60;65.30;;;;;;5050877;28;20359;-71
2023/09/11 09:13:52;;;;;;;3.40;2.10;;;27.60;65.20;;;;;;5059636;28;21332;-72
2023/09/11 09:16:18;;;;;;;12.70;3.83;;;27.70;65.20;;;;;;5043213;28;20048;-72
2023/09/11 09:18:52;;;;;;;5.88;3.47;;;27.80;65.00;;;;;;5060353;28;20044;-71
2023/09/11 09:21:20;;;;;;;7.35;3.72;;;27.90;64.80;;;;;;5047179;28;20475;-71
2023/09/11 09:23:45;;;;;;;3.65;2.60;;;27.90;64.50;;;;;;5042534;28;20025;-72
2023/09/11 09:26:12;;;;;;;4.13;2.33;;;28.00;64.70;;;;;;5045783;28;20399;-71
2023/09/11 09:28:46;;;;;;;6.30;4.03;;;28.10;64.70;;;;;;5061085;28;20152;-71
2023/09/11 09:31:23;;;;;;;4.13;2.65;;;28.20;63.80;;;;;;5062707;28;20119;-73
2023/09/11 09:33:52;;;;;;;3.78;2.58;;;28.30;64.00;;;;;;5062641;28;20068;-71
2023/09/11 09:36:17;;;;;;;5.80;3.17;;;28.40;64.00;;;;;;5060328;28;20108;-69
2023/09/11 09:38:44;;;;;;;4.75;2.58;;;28.50;63.80;;;;;;5061305;28;20452;-71
2023/09/11 09:41:10;;;;;;;4.97;2.90;;;28.70;63.80;;;;;;5064510;28;20032;-67
2023/09/11 09:43:36;;;;;;;2.97;2.28;;;28.80;63.40;;;;;;5062785;28;20066;-66
2023/09/11 09:46:18;;;;;;;3.42;2.90;;;28.90;63.40;;;;;;5065334;28;20064;-66
2023/09/11 09:48:43;;;;;;;7.47;3.13;;;29.00;62.80;;;;;;5045730;28;20028;-68
2023/09/11 09:51:09;;;;;;;4.22;2.20;;;29.10;62.60;;;;;;5044924;28;20036;-68
2023/09/11 09:53:46;;;;;;;4.45;2.30;;;29.30;62.60;;;;;;5061717;28;20040;-67
2023/09/11 09:56:13;;;;;;;2.83;2.33;;;29.40;62.30;;;;;;5062942;28;20060;-68
2023/09/11 09:58:40;;;;;;;3.25;2.17;;;29.50;61.40;;;;;;5065504;28;20029;-70
2023/09/11 10:01:14;;;;;;;4.85;2.60;;;29.60;61.50;;;;;;5065601;28;20020;-70
2023/09/11 10:03:48;;;;;;;2.85;2.20;;;29.70;60.50;;;;;;5065868;28;20036;-71
2023/09/11 10:06:27;;;;;;;2.30;1.80;;;29.80;60.60;;;;;;5060380;28;20103;-73
2023/09/11 10:09:06;;;;;;;4.13;2.30;;;29.90;60.80;;;;;;5045214;28;20033;-69
2023/09/11 10:11:32;;;;;;;2.20;1.75;;;30.10;59.80;;;;;;5060302;28;20032;-73
2023/09/11 10:14:00;;;;;;;3.35;2.42;;;30.20;59.90;;;;;;5063765;28;20028;-69
2023/09/11 10:16:27;;;;;;;3.35;2.03;;;30.30;59.50;;;;;;5061137;28;20498;-69
2023/09/11 10:18:57;;;;;;;2.55;1.90;;;30.40;59.50;;;;;;5062965;28;20115;-66
2023/09/11 10:21:23;;;;;;;2.58;1.77;;;30.60;59.30;;;;;;5047489;28;20029;-66
2023/09/11 10:23:50;;;;;;;3.42;1.73;;;30.70;58.10;;;;;;5063514;28;20056;-67
2023/09/11 10:26:42;;;;;;;2.28;1.75;;;30.80;58.10;;;;;;5062821;28;20040;-72
2023/09/11 10:29:27;;;;;;;2.90;1.90;;;31.00;58.00;;;;;;5058592;28;20429;-72
2023/09/11 10:32:06;;;;;;;1.73;1.42;;;31.10;57.50;;;;;;5059805;28;20056;-70
2023/09/11 10:34:36;;;;;;;2.58;1.73;;;31.30;57.20;;;;;;5056352;28;20074;-70
2023/09/11 10:37:04;;;;;;;3.38;2.10;;;31.40;56.60;;;;;;5041401;28;20044;-69
2023/09/11 10:39:30;;;;;;;2.53;1.70;;;31.50;55.30;;;;;;5045021;28;20043;-66
2023/09/11 10:41:56;;;;;;;3.13;1.63;;;31.60;55.30;;;;;;5064640;28;20477;-67
2023/09/11 10:44:22;;;;;;;3.05;2.05;;;31.70;55.00;;;;;;5060254;28;20033;-67
2023/09/11 10:46:49;;;;;;;2.45;1.83;;;31.70;53.90;;;;;;5060160;28;20040;-67
2023/09/11 10:49:20;;;;;;;3.55;2.38;;;31.70;53.00;;;;;;5062135;28;20035;-67
2023/09/11 10:51:49;;;;;;;1.65;1.55;;;31.60;53.60;;;;;;5067186;28;20031;-67
2023/09/11 10:54:22;;;;;;;2.78;1.80;;;31.80;53.80;;;;;;5068719;28;20039;-68
2023/09/11 10:56:51;;;;;;;2.45;1.65;;;32.00;52.70;;;;;;5045487;28;20107;-67
2023/09/11 10:59:17;;;;;;;3.28;2.55;;;32.10;52.80;;;;;;5045904;28;20039;-68
2023/09/11 11:01:45;;;;;;;2.35;1.63;;;32.10;51.30;;;;;;5063791;28;20403;-67
2023/09/11 11:04:14;;;;;;;1.55;1.45;;;32.10;51.90;;;;;;5068395;28;20083;-67
2023/09/11 11:06:44;;;;;;;2.25;1.58;;;32.20;52.40;;;;;;5065458;28;20396;-68
2023/09/11 11:09:28;;;;;;;2.58;1.95;;;32.30;51.80;;;;;;5064504;28;20020;-68
2023/09/11 11:11:57;;;;;;;3.53;1.70;;;32.40;51.50;;;;;;5067176;28;20020;-67
2023/09/11 11:14:23;;;;;;;1.98;1.58;;;32.50;51.50;;;;;;5062862;28;20028;-68
2023/09/11 11:16:56;;;;;;;1.50;1.40;;;32.70;51.70;;;;;;5031697;28;20048;-67
2023/09/11 11:19:31;;;;;;;2.95;1.52;;;32.80;51.30;;;;;;5025580;28;20115;-71
2023/09/11 11:21:59;;;;;;;1.45;1.30;;;32.90;50.50;;;;;;5022486;28;20020;-71
2023/09/11 11:24:25;;;;;;;1.73;1.45;;;33.00;51.10;;;;;;5025459;28;20022;-67
2023/09/11 11:26:56;;;;;;;4.13;1.77;;;33.20;51.10;;;;;;5024785;28;20366;-67
2023/09/11 11:29:23;;;;;;;3.07;2.10;;;33.20;49.70;;;;;;5023593;28;20077;-67
2023/09/11 11:31:53;;;;;;;2.63;1.90;;;33.20;50.30;;;;;;5023238;28;20418;-67
2023/09/11 11:34:22;;;;;;;2.03;1.80;;;33.30;49.60;;;;;;5023595;28;20017;-67
2023/09/11 11:36:50;;;;;;;2.35;2.15;;;33.40;50.10;;;;;;5021825;28;20017;-67
2023/09/11 11:39:16;;;;;;;3.42;1.83;;;33.40;49.30;;;;;;5025943;28;20068;-71
2023/09/11 11:41:43;;;;;;;3.53;1.95;;;33.30;48.50;;;;;;5026243;28;20476;-67
2023/09/11 11:44:09;;;;;;;2.22;2.03;;;33.30;48.50;;;;;;5025757;28;20037;-67
2023/09/11 11:46:35;;;;;;;2.28;2.08;;;33.30;48.70;;;;;;5026149;28;20037;-71
2023/09/11 11:49:01;;;;;;;2.92;1.90;;;33.30;48.70;;;;;;5020336;28;20042;-71
2023/09/11 11:51:29;;;;;;;2.05;1.85;;;33.30;48.80;;;;;;5025905;28;20362;-71
2023/09/11 11:53:54;;;;;;;2.10;1.90;;;33.30;48.10;;;;;;5026930;28;20037;-71
2023/09/11 11:56:20;;;;;;;3.53;1.80;;;33.40;48.80;;;;;;5017549;28;20071;-71
2023/09/11 11:58:46;;;;;;;2.00;1.77;;;33.50;49.00;;;;;;5022924;28;20041;-67
2023/09/11 12:01:11;;;;;;;2.13;1.80;;;33.60;49.20;;;;;;5018719;28;20108;-71
2023/09/11 12:03:48;;;;;;;1.80;1.70;;;33.70;49.20;;;;;;5023393;28;20040;-67
2023/09/11 12:06:15;;;;;;;3.15;2.33;;;33.80;49.90;;;;;;5023317;28;20021;-67
2023/09/11 12:08:42;;;;;;;3.13;2.25;;;34.00;48.10;;;;;;5019833;28;20033;-71
2023/09/11 12:11:08;;;;;;;4.72;2.15;;;33.90;48.30;;;;;;5025790;28;20021;-71
2023/09/11 12:13:34;;;;;;;1.30;1.20;;;33.80;48.50;;;;;;5024697;28;20041;-71
2023/09/11 12:16:01;;;;;;;2.72;2.00;;;33.90;48.90;;;;;;5035004;28;20051;-71
2023/09/11 12:18:29;;;;;;;3.95;2.38;;;34.10;48.70;;;;;;5042460;28;20101;-71
2023/09/11 12:20:59;;;;;;;2.47;2.25;;;34.10;47.80;;;;;;5066574;28;20020;-67
2023/09/11 12:23:26;;;;;;;3.00;2.43;;;34.10;48.10;;;;;;5047509;28;20075;-71
2023/09/11 12:25:52;;;;;;;3.72;1.90;;;34.10;48.00;;;;;;5058479;28;20123;-67
2023/09/11 12:28:20;;;;;;;1.90;1.50;;;34.10;48.30;;;;;;5061437;28;20441;-71
2023/09/11 12:30:49;;;;;;;5.30;1.98;;;34.10;48.10;;;;;;5061959;28;20037;-71
2023/09/11 12:33:21;;;;;;;2.78;2.15;;;34.10;48.60;;;;;;5064731;28;20047;-67
2023/09/11 12:35:46;;;;;;;3.55;2.10;;;34.10;48.70;;;;;;5062181;28;20098;-67
2023/09/11 12:38:12;;;;;;;4.35;2.50;;;34.20;48.60;;;;;;5064815;28;20110;-71
2023/09/11 12:40:42;;;;;;;4.38;2.28;;;34.20;47.30;;;;;;5060859;28;20025;-67
2023/09/11 12:43:08;;;;;;;2.30;2.08;;;34.10;47.70;;;;;;5057810;28;20028;-72
2023/09/11 12:45:35;;;;;;;2.38;1.63;;;34.00;47.70;;;;;;5066076;28;20032;-71